Time;durP1;ratioP1;P1;durP2;ratioP2;P2;SDS_P1;SDS_P2;PMS_P1;PMS_P2;Temp;Humidity;BMP_temperature;BMP_pressure;BME280_temperature;BME280_humidity;BME280_pressure;Samples;Min_cycle;Max_cycle;Signal;HPM_P1;HPM_P2
2022/10/11 00:01:00;;;;;;;3.65;2.40;;;;;;;11.83;67.45;99233.66;4928415;29;20044;-58
2022/10/11 00:04:16;;;;;;;8.65;3.33;;;;;;;11.78;67.48;99234.91;4882705;29;20447;-59
2022/10/11 00:11:37;;;;;;;7.20;3.10;;;;;;;11.75;67.75;99235.13;4908314;29;20085;-59
2022/10/11 00:15:17;;;;;;;7.18;3.00;;;;;;;11.80;67.41;99239.09;5106966;27;20394;-60
2022/10/11 00:18:08;;;;;;;4.82;2.60;;;;;;;11.64;67.85;99238.41;5065919;28;20040;-56
2022/10/11 00:21:05;;;;;;;5.82;3.22;;;;;;;11.67;68.03;99239.06;5079335;28;20040;-58
2022/10/11 00:23:56;;;;;;;5.85;3.10;;;;;;;11.90;67.13;99241.09;5076815;28;20071;-57
2022/10/11 00:26:42;;;;;;;5.22;3.10;;;;;;;11.76;67.66;99236.78;5081049;28;20450;-59
2022/10/11 00:29:35;;;;;;;6.15;3.17;;;;;;;11.78;67.56;99235.72;5065226;28;20044;-59
2022/10/11 00:32:23;;;;;;;5.03;2.97;;;;;;;11.68;68.28;99237.28;5051138;28;20048;-59
2022/10/11 00:35:13;;;;;;;4.90;2.70;;;;;;;11.66;68.25;99233.91;5091376;28;20032;-58
2022/10/11 00:38:04;;;;;;;5.93;2.70;;;;;;;11.78;68.05;99229.66;5074124;28;20101;-58
2022/10/11 00:40:50;;;;;;;6.13;3.38;;;;;;;11.72;68.30;99225.63;5070362;28;20214;-56
2022/10/11 00:43:35;;;;;;;7.38;2.78;;;;;;;11.74;68.31;99222.91;5078635;28;20060;-57
2022/10/11 00:46:33;;;;;;;3.60;2.45;;;;;;;11.79;68.24;99221.69;5027638;28;20080;-55
2022/10/11 00:50:15;;;;;;;5.03;2.78;;;;;;;11.56;68.70;99220.56;5061437;28;20124;-62
2022/10/11 00:53:35;;;;;;;5.65;2.58;;;;;;;11.50;69.44;99228.84;5068190;28;20041;-58
2022/10/11 00:56:52;;;;;;;4.45;2.95;;;;;;;11.72;68.88;99228.25;5014338;28;20049;-56
2022/10/11 00:59:59;;;;;;;5.18;2.85;;;;;;;11.61;69.29;99223.72;4995448;28;20066;-58
2022/10/11 01:03:08;;;;;;;4.45;2.83;;;;;;;11.58;69.49;99232.66;4905682;29;20048;-57
2022/10/11 01:06:00;;;;;;;4.57;2.63;;;;;;;11.57;69.75;99227.50;4887588;29;20128;-56
2022/10/11 01:09:09;;;;;;;6.18;2.92;;;;;;;11.38;70.36;99226.06;4834364;29;20498;-58
2022/10/11 01:20:50;;;;;;;5.88;3.08;;;;;;;11.36;69.99;99227.94;4795056;29;20138;-59
2022/10/11 01:24:54;;;;;;;9.85;2.85;;;;;;;11.27;70.24;99233.78;4732929;30;20071;-56
2022/10/11 01:27:58;;;;;;;9.25;3.10;;;;;;;11.35;70.06;99242.00;4746300;30;20072;-58
2022/10/11 01:30:45;;;;;;;7.45;3.05;;;;;;;11.64;69.04;99235.78;4721771;30;20045;-57
2022/10/11 01:33:47;;;;;;;6.50;3.38;;;;;;;11.57;69.09;99233.59;4712095;30;20107;-60
2022/10/11 01:36:59;;;;;;;7.35;3.05;;;;;;;11.42;69.74;99240.69;4686172;30;20056;-58
2022/10/11 01:39:47;;;;;;;7.43;3.03;;;;;;;11.43;69.56;99242.34;4763849;29;20058;-57
2022/10/11 01:42:38;;;;;;;;;;;;;;;11.65;68.56;99246.19;4814491;29;20764;-58
2022/10/11 01:45:25;;;;;;;4.78;2.47;;;;;;;11.86;67.87;99240.50;4804010;29;19924;-60
2022/10/11 01:48:21;;;;;;;3.92;2.78;;;;;;;11.89;67.72;99239.44;4819777;29;20062;-58
2022/10/11 01:51:08;;;;;;;6.43;3.38;;;;;;;11.93;67.45;99233.06;4806625;29;20907;-58
2022/10/11 01:54:10;;;;;;;5.13;2.80;;;;;;;11.86;67.65;99235.25;4818998;29;20042;-59
2022/10/11 01:57:13;;;;;;;5.75;2.83;;;;;;;11.69;68.35;99234.56;4821706;29;20494;-57
2022/10/11 02:00:18;;;;;;;6.15;3.25;;;;;;;11.29;69.80;99237.16;4836076;29;20136;-60
2022/10/11 02:03:33;;;;;;;6.47;3.50;;;;;;;11.31;69.80;99243.97;4897658;28;20046;-59
2022/10/11 02:07:00;;;;;;;9.30;3.60;;;;;;;11.60;69.13;99247.44;4948106;28;20485;-58
2022/10/11 02:10:41;;;;;;;6.57;3.20;;;;;;;11.51;68.78;99243.63;4956503;28;20058;-58
2022/10/11 02:17:26;;;;;;;8.27;3.60;;;;;;;11.26;69.76;99237.38;4934910;29;20382;-56
2022/10/11 02:20:19;;;;;;;5.60;2.78;;;;;;;11.34;69.00;99241.16;4940881;29;20055;-61
2022/10/11 02:23:53;;;;;;;6.88;3.20;;;;;;;11.43;68.68;99238.88;4945700;29;20071;-57
2022/10/11 02:27:21;;;;;;;8.35;3.33;;;;;;;11.29;69.31;99245.03;4931815;29;20355;-59
2022/10/11 02:34:54;;;;;;;10.25;3.20;;;;;;;11.33;69.03;99251.75;4914705;29;20431;-58
2022/10/11 02:38:47;;;;;;;5.30;3.00;;;;;;;11.58;68.06;99252.81;4927326;29;20143;-59
2022/10/11 02:41:42;;;;;;;5.22;2.83;;;;;;;11.66;67.54;99255.78;4910806;29;20055;-56
2022/10/11 02:44:37;;;;;;;6.05;3.50;;;;;;;11.55;67.87;99256.47;4896298;29;20051;-56
2022/10/11 02:47:30;;;;;;;4.50;2.78;;;;;;;11.42;68.26;99255.56;4882515;29;20044;-59
2022/10/11 02:50:22;;;;;;;6.82;3.22;;;;;;;11.13;69.33;99258.28;4910793;29;20059;-61
2022/10/11 02:53:11;;;;;;;7.82;2.97;;;;;;;11.05;69.48;99256.16;4915218;28;20052;-58
2022/10/11 02:56:09;;;;;;;8.35;3.90;;;;;;;11.18;69.52;99256.22;4951705;28;20038;-58
2022/10/11 02:58:59;;;;;;;6.25;3.35;;;;;;;11.31;68.90;99254.47;4968080;28;20111;-59
2022/10/11 03:01:45;;;;;;;6.47;3.05;;;;;;;11.25;69.50;99254.03;4960552;28;20090;-58
2022/10/11 03:04:33;;;;;;;5.07;2.65;;;;;;;11.46;68.78;99255.28;4966347;28;20047;-58
2022/10/11 03:07:27;;;;;;;9.02;2.95;;;;;;;11.62;68.40;99251.66;4966688;28;20054;-59
2022/10/11 03:10:13;;;;;;;5.80;3.03;;;;;;;11.43;68.58;99258.09;4965039;28;20046;-59
2022/10/11 03:13:23;;;;;;;5.68;3.00;;;;;;;11.11;69.83;99263.63;4966133;28;20049;-60
2022/10/11 03:16:12;;;;;;;6.35;2.85;;;;;;;11.35;69.66;99257.75;4919004;29;20462;-60
2022/10/11 03:19:06;;;;;;;5.80;3.20;;;;;;;11.39;69.49;99266.28;4953636;28;20049;-58
2022/10/11 03:21:52;;;;;;;7.55;3.13;;;;;;;11.27;69.96;99270.50;4964195;28;20061;-58
2022/10/11 03:24:37;;;;;;;9.98;3.25;;;;;;;11.29;70.19;99279.13;4986466;28;20474;-58
2022/10/11 03:27:22;;;;;;;5.93;2.67;;;;;;;11.36;70.45;99269.09;4981969;28;20062;-58
2022/10/11 03:30:10;;;;;;;6.18;2.90;;;;;;;11.56;69.86;99270.41;4986762;28;20126;-58
2022/10/11 03:32:54;;;;;;;5.47;2.83;;;;;;;11.42;70.82;99271.31;4987261;28;20054;-58
2022/10/11 03:35:39;;;;;;;3.83;2.55;;;;;;;11.58;69.75;99286.91;4973144;28;20113;-58
2022/10/11 03:38:24;;;;;;;5.28;3.00;;;;;;;11.56;69.80;99280.91;4984495;28;20069;-58
2022/10/11 03:41:09;;;;;;;5.22;2.72;;;;;;;11.56;69.62;99287.00;4972775;28;20050;-58
2022/10/11 03:43:54;;;;;;;4.50;3.05;;;;;;;11.55;69.81;99290.59;4983289;28;20117;-59
2022/10/11 03:46:39;;;;;;;5.85;3.17;;;;;;;11.49;70.39;99293.59;4984475;28;20050;-58
2022/10/11 03:49:24;;;;;;;8.02;2.88;;;;;;;11.34;71.68;99296.25;4983203;28;20092;-58
2022/10/11 03:52:08;;;;;;;4.22;2.65;;;;;;;11.23;72.30;99300.50;4974148;28;20050;-57
2022/10/11 03:54:53;;;;;;;3.58;2.47;;;;;;;11.72;70.92;99290.44;5007246;28;20145;-59
2022/10/11 03:57:37;;;;;;;6.18;3.00;;;;;;;11.99;69.81;99284.31;5007219;28;20117;-58
2022/10/11 04:00:22;;;;;;;5.70;3.22;;;;;;;11.69;70.36;99294.09;5003588;28;20120;-59
2022/10/11 04:03:20;;;;;;;5.18;2.97;;;;;;;11.65;70.32;99303.94;5006689;28;20134;-59
2022/10/11 04:06:07;;;;;;;3.88;2.47;;;;;;;11.61;70.48;99297.22;4975897;28;20053;-58
2022/10/11 04:08:51;;;;;;;6.85;3.08;;;;;;;11.25;72.39;99303.84;5004918;28;20521;-57
2022/10/11 04:11:36;;;;;;;3.88;2.67;;;;;;;11.22;73.03;99302.28;5003245;28;20053;-58
2022/10/11 04:14:22;;;;;;;4.57;2.58;;;;;;;11.46;72.72;99299.88;5006345;28;20059;-58
2022/10/11 04:17:06;;;;;;;5.28;2.95;;;;;;;11.34;73.14;99303.28;5011449;28;20041;-55
2022/10/11 04:19:52;;;;;;;6.28;2.80;;;;;;;11.40;72.60;99292.41;5005300;28;20121;-57
2022/10/11 04:22:38;;;;;;;4.78;3.15;;;;;;;11.37;73.13;99302.25;4992272;28;20042;-57
2022/10/11 04:25:23;;;;;;;3.75;2.70;;;;;;;12.38;100.00;99306.25;5006269;28;20080;-51
2022/10/11 04:28:08;;;;;;;6.03;2.67;;;;;;;13.69;83.06;99298.16;5002292;28;20474;-58
2022/10/11 04:30:54;;;;;;;7.90;3.03;;;;;;;12.69;73.66;99304.16;4980329;28;20494;-58
2022/10/11 04:33:39;;;;;;;6.28;3.00;;;;;;;12.09;73.50;99305.56;5002120;28;20049;-54
2022/10/11 04:36:34;;;;;;;4.53;3.10;;;;;;;11.96;73.06;99303.72;4989653;28;20116;-58
2022/10/11 04:39:19;;;;;;;3.35;2.63;;;;;;;11.80;73.33;99312.59;5005285;28;20581;-57
2022/10/11 04:42:04;;;;;;;8.73;5.25;;;;;;;11.63;74.43;99310.22;4995091;28;20092;-58
2022/10/11 04:44:59;;;;;;;8.85;4.10;;;;;;;12.03;74.93;99314.66;5006128;28;20125;-58
2022/10/11 04:47:43;;;;;;;6.90;3.65;;;;;;;11.68;75.11;99309.00;5009134;28;20076;-57
2022/10/11 04:50:28;;;;;;;15.82;7.22;;;;;;;11.67;75.24;99315.19;5005184;28;20040;-56
2022/10/11 04:53:15;;;;;;;7.72;4.50;;;;;;;11.46;76.36;99322.63;5005562;28;20056;-58
2022/10/11 04:56:03;;;;;;;8.70;3.72;;;;;;;11.44;77.64;99327.97;4991780;28;20061;-58
2022/10/11 04:58:52;;;;;;;5.90;3.40;;;;;;;11.44;76.27;99327.16;4975835;28;20136;-59
2022/10/11 05:01:36;;;;;;;8.60;3.17;;;;;;;11.57;75.01;99328.03;4989355;28;20042;-57
2022/10/11 05:04:22;;;;;;;7.63;3.30;;;;;;;11.34;76.42;99327.72;4996970;28;20046;-58
2022/10/11 05:07:06;;;;;;;4.97;3.50;;;;;;;11.20;77.53;99325.13;5011033;28;20080;-58
2022/10/11 05:09:51;;;;;;;5.10;3.17;;;;;;;11.16;77.86;99319.22;5012791;28;20125;-58
2022/10/11 05:12:35;;;;;;;7.97;3.38;;;;;;;11.20;78.09;99318.09;5000753;28;20173;-61
2022/10/11 05:15:21;;;;;;;10.13;3.75;;;;;;;11.52;88.55;99324.03;5009616;28;20045;-57
2022/10/11 05:18:05;;;;;;;7.85;3.38;;;;;;;11.49;78.61;99326.88;4996816;28;20044;-59
2022/10/11 05:21:07;;;;;;;8.70;4.07;;;;;;;11.40;78.27;99331.75;5004734;28;20080;-56
2022/10/11 05:23:54;;;;;;;8.88;4.18;;;;;;;11.60;77.55;99334.03;5001425;28;20053;-58
2022/10/11 05:26:41;;;;;;;4.78;3.17;;;;;;;11.48;77.80;99333.88;5000423;28;20488;-57
2022/10/11 05:29:26;;;;;;;9.45;4.85;;;;;;;11.24;78.74;99338.91;4999910;28;20061;-57
2022/10/11 05:32:13;;;;;;;7.82;4.03;;;;;;;11.36;78.41;99343.38;4998034;28;20620;-56
2022/10/11 05:34:57;;;;;;;6.88;4.07;;;;;;;11.46;78.24;99344.47;4996506;28;20389;-57
2022/10/11 05:37:43;;;;;;;6.65;3.95;;;;;;;11.47;78.22;99345.34;4998319;28;20074;-57
2022/10/11 05:40:27;;;;;;;5.80;3.03;;;;;;;11.55;77.99;99353.56;5002484;28;20045;-58
2022/10/11 05:43:12;;;;;;;5.03;3.20;;;;;;;11.55;78.02;99350.09;4999854;28;20137;-58
2022/10/11 05:45:57;;;;;;;7.75;3.22;;;;;;;11.53;78.02;99349.34;4998141;28;20128;-57
2022/10/11 05:48:42;;;;;;;8.65;3.95;;;;;;;11.51;78.77;99359.94;4997364;28;20064;-59
2022/10/11 05:51:26;;;;;;;5.40;3.47;;;;;;;11.77;78.02;99352.19;5000582;28;20045;-55
2022/10/11 05:54:12;;;;;;;9.80;4.22;;;;;;;12.03;76.84;99352.25;5001964;28;20065;-56
2022/10/11 05:56:56;;;;;;;12.15;5.43;;;;;;;12.05;77.08;99353.00;5009082;28;20034;-56
2022/10/11 05:59:41;;;;;;;8.07;4.47;;;;;;;11.56;80.24;99363.09;4998057;28;20091;-57
2022/10/11 06:02:27;;;;;;;6.65;3.85;;;;;;;11.60;80.78;99368.16;4999161;28;20081;-57
2022/10/11 06:05:12;;;;;;;8.82;3.70;;;;;;;11.75;79.84;99367.16;5003434;28;20072;-54
2022/10/11 06:07:57;;;;;;;7.78;4.10;;;;;;;11.80;79.94;99380.84;5001491;28;20030;-55
2022/10/11 06:10:43;;;;;;;5.22;3.40;;;;;;;11.67;80.99;99382.59;5006776;28;20120;-56
2022/10/11 06:13:28;;;;;;;7.57;3.85;;;;;;;11.85;80.60;99387.59;5011652;28;20050;-57
2022/10/11 06:16:13;;;;;;;6.65;3.58;;;;;;;11.90;79.67;99394.22;5016443;28;20058;-54
2022/10/11 06:18:58;;;;;;;8.23;3.80;;;;;;;11.90;79.89;99396.84;5016024;28;20076;-57
2022/10/11 06:21:44;;;;;;;9.43;4.88;;;;;;;11.91;81.11;99401.16;5007485;28;20139;-59
2022/10/11 06:24:29;;;;;;;8.38;4.57;;;;;;;12.02;80.48;99394.38;5014062;28;20044;-57
2022/10/11 06:27:13;;;;;;;6.88;4.10;;;;;;;12.04;80.69;99403.00;5020684;28;20806;-58
2022/10/11 06:29:58;;;;;;;9.07;4.10;;;;;;;11.92;81.95;99394.97;5025144;28;20069;-56
2022/10/11 06:32:43;;;;;;;9.80;4.00;;;;;;;11.75;84.85;99401.28;5023694;28;20539;-57
2022/10/11 06:35:27;;;;;;;8.15;4.38;;;;;;;11.78;85.21;99395.84;5019166;28;20029;-60
2022/10/11 06:38:12;;;;;;;9.38;4.03;;;;;;;11.88;85.31;99395.28;5024014;28;20128;-58
2022/10/11 06:41:17;;;;;;;6.45;4.05;;;;;;;11.81;85.02;99397.44;5022682;28;20388;-60
2022/10/11 06:44:02;;;;;;;17.85;7.95;;;;;;;12.03;83.99;99396.91;5016475;28;20140;-58
2022/10/11 06:46:46;;;;;;;10.57;4.85;;;;;;;12.23;82.54;99402.69;5021941;28;20050;-58
2022/10/11 06:49:34;;;;;;;6.95;4.45;;;;;;;12.21;81.83;99398.47;5014171;28;20047;-59
2022/10/11 06:52:19;;;;;;;7.00;4.00;;;;;;;12.25;81.46;99410.47;5022371;28;20038;-57
2022/10/11 06:55:04;;;;;;;7.55;4.20;;;;;;;12.50;80.26;99403.59;5020257;28;20040;-60
2022/10/11 06:57:49;;;;;;;8.30;4.43;;;;;;;12.65;79.31;99405.19;5017816;28;20065;-56
2022/10/11 07:00:33;;;;;;;10.38;6.07;;;;;;;13.49;80.68;99411.81;5035294;28;20045;-57
2022/10/11 07:03:17;;;;;;;10.70;6.38;;;;;;;12.65;79.52;99413.06;5022219;28;20506;-60
2022/10/11 07:06:10;;;;;;;10.13;5.20;;;;;;;12.90;78.48;99414.06;5014195;28;20138;-58
2022/10/11 07:08:55;;;;;;;7.57;4.65;;;;;;;12.86;78.37;99423.06;5013812;28;20469;-58
2022/10/11 07:11:39;;;;;;;8.93;4.78;;;;;;;13.86;82.20;99424.16;5010103;28;20049;-59
2022/10/11 07:14:24;;;;;;;10.43;4.60;;;;;;;13.87;79.73;99422.38;5009208;28;20180;-56
2022/10/11 07:17:11;;;;;;;8.60;4.88;;;;;;;13.22;77.51;99435.63;5020630;28;20040;-56
2022/10/11 07:19:59;;;;;;;9.82;4.50;;;;;;;13.16;77.79;99431.63;5030825;28;20045;-55
2022/10/11 07:22:44;;;;;;;6.95;3.78;;;;;;;13.05;78.69;99435.00;5019828;28;20080;-56
2022/10/11 07:25:29;;;;;;;9.52;4.32;;;;;;;13.05;78.84;99429.72;5013644;28;20049;-58
2022/10/11 07:28:14;;;;;;;9.77;4.50;;;;;;;13.27;78.43;99436.13;5014466;28;20037;-58
2022/10/11 07:31:23;;;;;;;9.40;5.00;;;;;;;13.60;76.83;99440.03;5010992;28;20100;-57
2022/10/11 07:34:09;;;;;;;8.63;4.72;;;;;;;13.77;75.42;99445.88;5016001;28;20045;-56
2022/10/11 07:36:53;;;;;;;8.65;4.60;;;;;;;13.88;74.29;99439.84;5018948;28;20044;-57
2022/10/11 07:39:38;;;;;;;8.60;4.45;;;;;;;13.71;75.28;99441.06;5018001;28;20481;-58
2022/10/11 07:42:23;;;;;;;9.50;4.63;;;;;;;13.93;75.41;99440.38;5012533;28;20036;-59
2022/10/11 07:45:07;;;;;;;9.50;5.25;;;;;;;14.97;72.59;99449.53;5023674;28;20120;-58
2022/10/11 07:47:54;;;;;;;18.38;9.18;;;;;;;16.48;66.38;99450.13;5002146;28;20464;-59
2022/10/11 07:50:39;;;;;;;14.82;6.53;;;;;;;15.72;68.21;99454.34;5016520;28;20069;-58
2022/10/11 07:53:24;;;;;;;8.57;5.18;;;;;;;15.98;67.54;99451.47;5009378;28;20109;-58
2022/10/11 07:56:11;;;;;;;8.95;4.82;;;;;;;16.15;67.15;99458.03;5011320;28;20130;-58
2022/10/11 07:58:59;;;;;;;11.32;4.40;;;;;;;16.65;66.11;99461.94;5014082;28;20056;-60
2022/10/11 08:01:44;;;;;;;16.33;4.55;;;;;;;16.43;65.45;99454.94;5016586;28;20147;-60
2022/10/11 08:04:28;;;;;;;9.27;4.25;;;;;;;16.78;64.58;99458.28;5016378;28;20393;-59
2022/10/11 08:07:13;;;;;;;8.15;4.13;;;;;;;16.99;63.46;99456.44;5018955;28;20090;-58
2022/10/11 08:09:57;;;;;;;6.53;3.33;;;;;;;17.29;62.46;99461.94;5013688;28;20527;-58
2022/10/11 08:12:42;;;;;;;8.07;3.97;;;;;;;18.21;60.36;99455.81;5016445;28;20140;-59
2022/10/11 08:15:28;;;;;;;8.77;3.78;;;;;;;19.33;56.53;99453.59;5025507;28;20052;-59
2022/10/11 08:18:12;;;;;;;8.00;4.03;;;;;;;20.10;54.29;99453.50;5011374;28;20084;-59
2022/10/11 08:20:57;;;;;;;15.93;9.48;;;;;;;19.58;55.21;99451.25;5016890;28;20045;-57
2022/10/11 08:23:42;;;;;;;16.02;8.52;;;;;;;19.75;54.31;99450.63;5012879;28;20050;-59
2022/10/11 08:26:27;;;;;;;8.45;4.22;;;;;;;19.98;54.03;99451.03;4994871;28;20069;-59
2022/10/11 08:29:13;;;;;;;6.65;3.55;;;;;;;20.78;51.90;99453.91;5012588;28;20537;-58
2022/10/11 08:31:57;;;;;;;9.15;4.85;;;;;;;20.92;51.20;99453.38;5021093;28;20603;-59
2022/10/11 08:34:42;;;;;;;9.85;5.03;;;;;;;20.69;52.25;99453.03;5016043;28;20476;-59
2022/10/11 08:37:27;;;;;;;8.90;3.55;;;;;;;21.60;48.91;99457.25;5021966;28;20132;-59
2022/10/11 08:40:16;;;;;;;8.00;4.40;;;;;;;21.60;49.37;99451.91;5017608;28;20128;-60
2022/10/11 08:43:12;;;;;;;9.18;4.40;;;;;;;22.06;48.36;99462.25;5028789;28;20041;-60
2022/10/11 08:46:00;;;;;;;6.85;4.10;;;;;;;21.87;48.18;99463.38;5016908;28;20041;-59
2022/10/11 08:48:46;;;;;;;7.78;4.43;;;;;;;22.10;48.31;99465.44;5016671;28;20108;-58
2022/10/11 08:51:37;;;;;;;7.90;4.00;;;;;;;22.35;47.46;99466.31;5015472;28;20092;-61
2022/10/11 08:54:38;;;;;;;6.55;4.45;;;;;;;22.51;46.50;99461.97;5015946;28;20092;-59
2022/10/11 08:57:26;;;;;;;6.70;4.03;;;;;;;22.57;46.62;99457.81;5019140;28;20044;-59
2022/10/11 09:00:17;;;;;;;6.70;4.43;;;;;;;23.57;44.61;99460.31;5021328;28;20042;-59
2022/10/11 09:03:26;;;;;;;5.43;3.38;;;;;;;22.97;46.18;99458.78;5021273;28;20112;-54
2022/10/11 09:06:18;;;;;;;5.40;3.45;;;;;;;23.18;45.66;99456.56;5015139;28;20050;-60
2022/10/11 09:09:19;;;;;;;5.80;3.33;;;;;;;23.16;46.36;99458.59;5016675;28;20041;-58
2022/10/11 09:12:12;;;;;;;11.00;4.30;;;;;;;23.72;44.57;99461.25;5019072;28;20049;-58
2022/10/11 09:15:19;;;;;;;9.98;5.07;;;;;;;23.77;44.06;99457.22;5018893;28;20076;-58
2022/10/11 09:18:09;;;;;;;7.50;4.32;;;;;;;23.36;45.44;99451.84;5020272;28;20059;-58
2022/10/11 09:21:17;;;;;;;6.45;3.85;;;;;;;23.14;45.97;99453.44;5020543;28;20496;-59
2022/10/11 09:24:28;;;;;;;8.35;4.15;;;;;;;22.56;46.65;99470.31;5027225;28;20071;-58
2022/10/11 09:27:25;;;;;;;7.60;3.88;;;;;;;22.94;46.48;99467.16;5022628;28;20102;-58
2022/10/11 09:30:13;;;;;;;8.68;3.70;;;;;;;23.91;44.92;99469.03;5029641;28;20045;-58
2022/10/11 09:33:12;;;;;;;5.70;3.55;;;;;;;24.20;44.10;99467.53;5026413;28;20072;-58
2022/10/11 09:36:11;;;;;;;4.97;3.42;;;;;;;24.08;43.08;99461.72;5023284;28;20033;-58
2022/10/11 09:38:55;;;;;;;10.25;3.10;;;;;;;24.70;43.00;99470.66;5003902;28;20041;-58
2022/10/11 09:41:45;;;;;;;8.13;4.30;;;;;;;24.02;42.77;99462.44;5025781;28;20034;-58
2022/10/11 09:44:36;;;;;;;6.95;4.07;;;;;;;23.51;45.69;99464.53;5003843;28;20069;-58
2022/10/11 09:47:24;;;;;;;9.15;3.70;;;;;;;24.21;43.52;99471.88;5023099;28;20113;-58
2022/10/11 09:50:19;;;;;;;6.63;3.63;;;;;;;24.07;43.04;99466.22;5017585;28;20459;-56
2022/10/11 09:53:04;;;;;;;6.57;4.57;;;;;;;23.17;44.37;99465.59;5018710;28;20045;-57
2022/10/11 09:56:01;;;;;;;5.68;3.45;;;;;;;24.08;43.85;99467.06;5019794;28;20827;-56
2022/10/11 09:58:46;;;;;;;6.03;3.60;;;;;;;23.91;43.93;99466.34;5025838;28;20041;-56
2022/10/11 10:01:32;;;;;;;6.20;4.47;;;;;;;22.10;47.21;99478.78;5026315;28;20456;-57
2022/10/11 10:04:17;;;;;;;6.38;4.05;;;;;;;22.56;46.79;99477.47;5015767;28;20038;-58
2022/10/11 10:07:11;;;;;;;7.53;4.35;;;;;;;23.68;45.33;99475.16;5015059;28;20108;-57
2022/10/11 10:09:57;;;;;;;8.10;4.28;;;;;;;23.75;44.83;99471.59;5002448;28;20145;-58
2022/10/11 10:12:41;;;;;;;7.60;4.65;;;;;;;23.90;44.06;99478.03;5020581;28;20117;-57
2022/10/11 10:15:32;;;;;;;10.02;4.95;;;;;;;23.88;43.30;99467.53;5019075;28;20041;-58
2022/10/11 10:18:25;;;;;;;7.30;4.10;;;;;;;24.59;43.42;99476.47;5025213;28;20667;-58
2022/10/11 10:21:13;;;;;;;9.63;4.75;;;;;;;25.39;41.56;99469.84;5020653;28;20037;-57
2022/10/11 10:24:03;;;;;;;9.70;4.30;;;;;;;24.69;42.99;99468.19;5020022;28;20073;-56
2022/10/11 10:27:15;;;;;;;10.05;4.50;;;;;;;24.41;42.93;99482.97;5019567;28;20042;-58
2022/10/11 10:30:06;;;;;;;7.93;3.95;;;;;;;24.84;41.75;99471.72;5021062;28;20091;-56
2022/10/11 10:33:03;;;;;;;7.65;4.35;;;;;;;23.81;43.97;99470.06;5027930;28;20047;-56
2022/10/11 10:36:13;;;;;;;6.90;4.32;;;;;;;24.99;42.16;99467.44;5021630;28;20065;-54
2022/10/11 10:39:27;;;;;;;11.00;3.97;;;;;;;24.41;42.95;99477.59;4986983;28;20044;-53
2022/10/11 10:42:19;;;;;;;9.07;4.28;;;;;;;23.97;42.80;99473.66;5030172;28;20045;-55
2022/10/11 10:45:08;;;;;;;8.40;3.80;;;;;;;23.18;45.39;99470.78;5026187;28;20045;-53
2022/10/11 10:48:30;;;;;;;6.53;4.03;;;;;;;24.63;42.91;99474.25;5029233;28;20516;-56
2022/10/11 10:51:33;;;;;;;8.93;4.80;;;;;;;24.85;42.11;99475.22;5028008;28;20038;-55
2022/10/11 10:54:30;;;;;;;6.40;3.90;;;;;;;24.51;42.21;99477.38;5028857;28;20167;-54
2022/10/11 10:57:32;;;;;;;7.18;3.58;;;;;;;25.01;41.66;99478.78;5018671;28;20045;-54
2022/10/11 11:00:21;;;;;;;7.15;3.55;;;;;;;25.19;41.39;99476.59;5023678;28;20053;-60
2022/10/11 11:03:13;;;;;;;8.27;3.40;;;;;;;26.02;39.26;99481.97;5007396;28;20033;-54
2022/10/11 11:06:04;;;;;;;6.65;4.25;;;;;;;25.80;39.09;99474.72;5025273;28;20453;-52
2022/10/11 11:08:55;;;;;;;6.20;3.50;;;;;;;25.97;39.92;99474.50;5025318;28;20132;-54
2022/10/11 11:11:43;;;;;;;12.90;3.85;;;;;;;25.05;41.66;99472.88;5024939;28;20066;-55
2022/10/11 11:14:43;;;;;;;8.73;3.15;;;;;;;23.68;44.84;99475.16;5023914;28;20045;-57
2022/10/11 11:17:49;;;;;;;7.90;3.97;;;;;;;23.08;45.30;99468.28;5025236;28;20050;-56
2022/10/11 11:21:04;;;;;;;5.35;3.33;;;;;;;24.47;42.99;99463.50;5024646;28;20304;-56
2022/10/11 11:23:58;;;;;;;6.10;3.55;;;;;;;23.70;44.07;99465.94;5016825;28;20045;-56
2022/10/11 11:26:57;;;;;;;6.00;3.90;;;;;;;23.81;43.98;99461.22;5020744;28;20046;-57
2022/10/11 11:29:58;;;;;;;4.07;2.72;;;;;;;25.56;41.16;99454.38;5014277;28;20129;-55
2022/10/11 11:32:59;;;;;;;;;;;;;;;24.32;42.49;99458.09;5022798;28;20096;-56
2022/10/11 11:35:49;;;;;;;6.65;3.55;;;;;;;23.33;44.66;99468.22;5022040;28;20428;-57
2022/10/11 11:38:54;;;;;;;6.83;3.23;;;;;;;23.25;44.94;99460.25;5018531;28;20053;-58
2022/10/11 11:41:45;;;;;;;5.30;3.08;;;;;;;24.74;43.17;99455.09;5015169;28;20076;-58
2022/10/11 11:44:33;;;;;;;7.72;3.50;;;;;;;23.60;44.31;99462.66;5016053;28;20461;-58
2022/10/11 11:47:28;;;;;;;7.80;3.10;;;;;;;24.44;43.28;99458.50;5016236;28;20125;-56
2022/10/11 11:50:21;;;;;;;7.60;3.50;;;;;;;24.66;42.13;99455.97;5017469;28;20038;-53
2022/10/11 11:53:13;;;;;;;6.05;3.28;;;;;;;24.17;42.72;99459.88;5021193;28;20069;-52
2022/10/11 11:56:07;;;;;;;7.65;3.45;;;;;;;24.45;42.53;99452.13;5013623;28;20049;-50
2022/10/11 11:59:09;;;;;;;5.78;2.95;;;;;;;25.01;42.29;99449.31;5015019;28;20186;-50
2022/10/11 12:02:15;;;;;;;10.55;3.53;;;;;;;24.76;41.48;99445.00;5021976;28;20033;-49
2022/10/11 12:05:00;;;;;;;7.85;3.25;;;;;;;24.27;42.29;99448.94;5016868;28;20140;-52
2022/10/11 12:07:56;;;;;;;7.57;3.08;;;;;;;23.77;44.29;99446.53;5020509;28;20065;-51
2022/10/11 12:10:48;;;;;;;5.15;3.03;;;;;;;22.71;46.75;99450.97;5030570;28;20140;-54
2022/10/11 12:13:33;;;;;;;8.18;2.83;;;;;;;23.75;44.81;99442.19;5012094;28;20354;-54
2022/10/11 12:16:19;;;;;;;8.00;2.78;;;;;;;23.77;44.36;99446.53;5015820;28;20117;-51
2022/10/11 12:19:04;;;;;;;7.55;3.33;;;;;;;23.88;43.93;99440.78;5016039;28;20043;-52
2022/10/11 12:22:26;;;;;;;5.70;3.50;;;;;;;23.40;44.32;99440.84;5016976;28;20125;-50
2022/10/11 12:25:14;;;;;;;6.70;2.83;;;;;;;23.77;45.80;99443.84;5019023;28;20041;-50
2022/10/11 12:28:00;;;;;;;7.22;3.03;;;;;;;24.22;43.34;99439.59;5016050;28;20071;-53
2022/10/11 12:30:46;;;;;;;6.88;2.40;;;;;;;24.71;43.29;99442.06;5027033;28;20052;-52
2022/10/11 12:33:31;;;;;;;5.10;2.90;;;;;;;24.99;42.73;99437.97;5010243;28;20077;-49
2022/10/11 12:36:28;;;;;;;4.38;2.70;;;;;;;24.88;42.83;99434.69;5028591;28;20424;-52
2022/10/11 12:39:19;;;;;;;3.88;2.20;;;;;;;24.31;43.25;99436.84;5010720;28;20062;-54
2022/10/11 12:42:07;;;;;;;7.70;2.72;;;;;;;24.71;42.27;99442.88;5018375;28;20079;-50
2022/10/11 12:45:18;;;;;;;9.35;3.03;;;;;;;23.83;44.48;99435.97;5013491;28;20046;-54
2022/10/11 12:48:22;;;;;;;7.43;2.80;;;;;;;24.52;43.27;99438.00;4930117;29;20052;-57
2022/10/11 12:51:26;;;;;;;7.80;3.35;;;;;;;24.62;42.15;99435.94;4926505;29;20122;-52
2022/10/11 12:54:46;;;;;;;5.82;2.65;;;;;;;25.53;42.14;99435.97;4928867;29;20093;-51
2022/10/11 12:58:19;;;;;;;5.10;2.55;;;;;;;25.18;41.37;99432.03;4925945;29;20071;-51
2022/10/11 13:01:03;;;;;;;5.82;2.70;;;;;;;25.59;40.81;99435.25;4869730;29;20042;-50
2022/10/11 13:04:13;;;;;;;4.20;2.20;;;;;;;24.78;41.03;99434.09;4871301;29;20053;-52
2022/10/11 13:07:11;;;;;;;9.88;2.85;;;;;;;24.66;41.30;99428.38;4874323;29;20469;-54
2022/10/11 13:09:56;;;;;;;4.90;2.50;;;;;;;24.29;42.39;99429.00;4872218;29;20057;-53
2022/10/11 13:12:45;;;;;;;6.90;2.40;;;;;;;24.44;42.49;99425.53;4870538;29;20041;-51
2022/10/11 13:15:30;;;;;;;6.18;2.13;;;;;;;24.92;41.71;99419.91;4872295;29;20128;-53
2022/10/11 13:18:17;;;;;;;5.70;2.10;;;;;;;24.68;40.94;99423.66;4870656;29;20466;-54
2022/10/11 13:21:13;;;;;;;5.45;2.67;;;;;;;25.31;40.10;99422.53;4872112;29;20501;-53
2022/10/11 13:24:01;;;;;;;8.00;2.58;;;;;;;24.89;41.54;99425.63;4895072;28;20219;-51
2022/10/11 13:26:48;;;;;;;5.55;2.60;;;;;;;25.14;40.96;99416.50;4953129;28;20472;-51
2022/10/11 13:30:01;;;;;;;6.45;2.60;;;;;;;25.23;40.21;99426.13;4953627;28;20066;-53
2022/10/11 13:32:50;;;;;;;6.68;2.30;;;;;;;25.54;39.77;99422.38;4959778;28;20067;-54
2022/10/11 13:36:02;;;;;;;7.25;2.47;;;;;;;25.09;41.79;99420.59;4964637;28;20150;-51
2022/10/11 13:38:54;;;;;;;4.63;2.63;;;;;;;24.03;43.16;99426.63;5024438;28;20043;-51
2022/10/11 13:41:39;;;;;;;9.98;2.75;;;;;;;23.97;43.58;99429.03;5020327;28;20542;-51
2022/10/11 13:44:25;;;;;;;6.82;2.55;;;;;;;23.93;43.31;99424.19;5021890;28;20033;-55
2022/10/11 13:47:16;;;;;;;6.60;2.72;;;;;;;22.96;45.12;99427.75;5017981;28;20065;-58
2022/10/11 13:50:15;;;;;;;6.03;2.78;;;;;;;23.54;44.45;99433.94;5019116;28;20061;-58
2022/10/11 13:53:03;;;;;;;4.47;2.30;;;;;;;23.44;43.88;99436.81;5024075;28;20050;-55
2022/10/11 13:55:58;;;;;;;9.57;2.20;;;;;;;23.72;44.08;99431.84;5016688;28;20389;-55